Time;durP1;ratioP1;P1;durP2;ratioP2;P2;SDS_P1;SDS_P2;PMS_P1;PMS_P2;Temp;Humidity;BMP_temperature;BMP_pressure;BME280_temperature;BME280_humidity;BME280_pressure;Samples;Min_cycle;Max_cycle;Signal;HPM_P1;HPM_P2
2024/01/23 00:02:02;;;;;;;0.80;0.60;;;8.40;99.90;;;;;;4859947;29;20041;-71
2024/01/23 00:04:28;;;;;;;2.92;0.55;;;8.30;99.90;;;;;;4858912;29;20085;-71
2024/01/23 00:06:54;;;;;;;3.90;0.70;;;8.30;99.90;;;;;;4858298;29;20487;-71
2024/01/23 00:09:20;;;;;;;4.68;1.25;;;8.40;99.90;;;;;;4858834;29;20434;-71
2024/01/23 00:11:45;;;;;;;2.83;0.40;;;8.50;99.90;;;;;;4859820;29;20113;-71
2024/01/23 00:14:11;;;;;;;6.43;1.60;;;8.50;99.90;;;;;;4858537;29;20803;-71
2024/01/23 00:16:37;;;;;;;3.80;1.10;;;8.40;99.90;;;;;;4857769;29;20037;-71
2024/01/23 00:19:03;;;;;;;5.32;0.82;;;8.40;99.90;;;;;;4859088;29;20089;-71
2024/01/23 00:21:29;;;;;;;10.63;1.52;;;8.50;99.90;;;;;;4859688;29;20551;-71
2024/01/23 00:23:55;;;;;;;7.05;1.13;;;8.40;99.90;;;;;;4858969;29;20177;-71
2024/01/23 00:26:21;;;;;;;5.90;0.80;;;8.40;99.90;;;;;;4858132;29;20585;-71
2024/01/23 00:28:47;;;;;;;2.33;0.63;;;8.40;99.90;;;;;;4859286;29;20029;-71
2024/01/23 00:31:15;;;;;;;0.93;0.40;;;8.40;99.90;;;;;;4859523;29;20038;-71
2024/01/23 00:33:41;;;;;;;0.88;0.60;;;8.50;99.90;;;;;;4859894;29;20041;-71
2024/01/23 00:36:07;;;;;;;2.50;0.82;;;8.50;99.90;;;;;;4857769;29;20068;-71
2024/01/23 00:38:33;;;;;;;4.53;0.50;;;8.50;99.90;;;;;;4860660;29;20063;-71
2024/01/23 00:40:59;;;;;;;3.25;0.43;;;8.50;99.90;;;;;;4860032;29;20037;-71
2024/01/23 00:43:24;;;;;;;4.10;1.30;;;8.60;99.90;;;;;;4860119;29;20042;-71
2024/01/23 00:45:50;;;;;;;1.13;0.25;;;8.50;99.90;;;;;;4859521;29;20038;-71
2024/01/23 00:48:16;;;;;;;0.57;0.30;;;8.60;99.90;;;;;;4859631;29;20381;-71
2024/01/23 00:50:42;;;;;;;2.55;0.73;;;8.60;99.90;;;;;;4857554;29;20112;-71
2024/01/23 00:53:08;;;;;;;1.45;0.45;;;8.60;99.90;;;;;;4859115;29;20056;-71
2024/01/23 00:55:33;;;;;;;5.30;0.82;;;8.60;99.90;;;;;;4858666;29;20040;-71
2024/01/23 00:57:59;;;;;;;5.43;1.30;;;8.50;99.90;;;;;;4859721;29;20467;-71
2024/01/23 01:00:25;;;;;;;1.70;0.45;;;8.50;99.90;;;;;;4857629;29;20135;-71
2024/01/23 01:02:51;;;;;;;3.47;0.55;;;8.40;99.90;;;;;;4859651;29;20056;-71
2024/01/23 01:05:17;;;;;;;3.13;1.13;;;8.50;99.90;;;;;;4859047;29;20026;-71
2024/01/23 01:07:44;;;;;;;4.45;1.60;;;8.40;99.90;;;;;;4859763;29;20085;-71
2024/01/23 01:10:10;;;;;;;5.72;0.60;;;8.50;99.90;;;;;;4859486;29;20061;-71
2024/01/23 01:12:35;;;;;;;2.28;0.75;;;8.50;99.90;;;;;;4860149;29;20081;-71
2024/01/23 01:15:02;;;;;;;4.63;0.73;;;8.60;99.90;;;;;;4858618;29;20062;-71
2024/01/23 01:17:28;;;;;;;3.70;0.55;;;8.60;99.90;;;;;;4872538;29;20021;-71
2024/01/23 01:19:55;;;;;;;4.07;1.00;;;8.50;99.90;;;;;;4857866;29;20033;-72
2024/01/23 01:22:21;;;;;;;3.47;0.63;;;8.50;99.90;;;;;;4858030;29;20517;-71
2024/01/23 01:24:47;;;;;;;2.95;0.68;;;8.50;99.90;;;;;;4857725;29;20029;-71
2024/01/23 01:27:13;;;;;;;3.13;1.08;;;8.50;99.90;;;;;;4858243;29;20033;-71
2024/01/23 01:29:38;;;;;;;1.73;0.93;;;8.50;99.90;;;;;;4859101;29;20086;-71
2024/01/23 01:32:05;;;;;;;17.20;0.85;;;8.50;99.90;;;;;;4857044;29;20033;-71
2024/01/23 01:34:31;;;;;;;4.90;1.33;;;8.50;99.90;;;;;;4858722;29;20025;-71
2024/01/23 01:36:57;;;;;;;0.63;0.40;;;8.40;99.90;;;;;;4858222;29;20121;-71
2024/01/23 01:39:23;;;;;;;2.00;1.05;;;8.40;99.90;;;;;;4858614;29;20379;-71
2024/01/23 01:41:54;;;;;;;2.85;0.45;;;8.40;99.90;;;;;;4858148;29;20072;-71
2024/01/23 01:44:20;;;;;;;4.47;1.07;;;8.30;99.90;;;;;;4858071;29;20033;-71
2024/01/23 01:46:47;;;;;;;10.45;1.02;;;8.30;99.90;;;;;;4857948;29;20026;-71
2024/01/23 01:49:15;;;;;;;4.07;0.60;;;8.30;99.90;;;;;;4858621;29;20065;-71
2024/01/23 01:51:43;;;;;;;6.10;0.98;;;8.30;99.90;;;;;;4856612;29;20049;-71
2024/01/23 01:54:09;;;;;;;1.42;0.50;;;8.30;99.90;;;;;;4858533;29;20033;-71
2024/01/23 01:56:35;;;;;;;8.20;1.10;;;8.20;99.90;;;;;;4856176;29;20029;-72
2024/01/23 01:59:01;;;;;;;2.05;0.65;;;8.30;99.90;;;;;;4858453;29;20022;-71
2024/01/23 02:01:27;;;;;;;13.27;1.65;;;8.30;99.90;;;;;;4856955;29;20085;-71
2024/01/23 02:03:54;;;;;;;5.78;0.63;;;8.30;99.90;;;;;;4857737;29;20049;-71
2024/01/23 02:06:20;;;;;;;6.75;1.50;;;8.40;99.90;;;;;;4857253;29;20432;-71
2024/01/23 02:08:48;;;;;;;1.52;0.55;;;8.30;99.90;;;;;;4857459;29;20074;-71
2024/01/23 02:11:14;;;;;;;5.22;1.23;;;8.30;99.90;;;;;;4859284;29;20076;-72
2024/01/23 02:13:41;;;;;;;1.63;0.77;;;8.30;99.90;;;;;;4861855;29;20199;-71
2024/01/23 02:16:09;;;;;;;3.50;1.38;;;8.20;99.90;;;;;;4859791;29;20383;-72
2024/01/23 02:18:34;;;;;;;8.55;0.68;;;8.00;99.90;;;;;;4862546;29;20036;-72
2024/01/23 02:21:00;;;;;;;4.38;0.65;;;8.00;99.90;;;;;;4861443;29;20030;-71
2024/01/23 02:23:30;;;;;;;2.00;0.38;;;8.00;99.90;;;;;;4859019;29;20398;-71
2024/01/23 02:25:56;;;;;;;1.48;0.35;;;8.10;99.90;;;;;;4861724;29;20124;-72
2024/01/23 02:28:23;;;;;;;10.05;1.90;;;8.20;99.90;;;;;;4860662;29;20057;-71
2024/01/23 02:30:49;;;;;;;2.72;0.70;;;8.10;99.90;;;;;;4860300;29;20041;-71
2024/01/23 02:33:15;;;;;;;5.65;2.13;;;8.00;99.90;;;;;;4876150;29;20394;-71
2024/01/23 02:35:41;;;;;;;9.43;0.73;;;7.90;99.90;;;;;;4861368;29;20431;-71
2024/01/23 02:38:10;;;;;;;1.40;0.60;;;7.90;99.90;;;;;;4860947;29;20058;-71
2024/01/23 02:40:36;;;;;;;5.10;0.75;;;7.80;99.90;;;;;;4856321;29;20037;-71
2024/01/23 02:43:02;;;;;;;11.88;1.23;;;7.80;99.90;;;;;;4861332;29;20040;-73
2024/01/23 02:45:28;;;;;;;3.35;0.63;;;7.90;99.90;;;;;;4858921;29;20033;-71
2024/01/23 02:47:54;;;;;;;10.20;1.38;;;7.90;99.90;;;;;;4861829;29;20108;-71
2024/01/23 02:50:20;;;;;;;6.28;1.08;;;7.90;99.90;;;;;;4875268;29;20143;-72
2024/01/23 02:52:46;;;;;;;7.55;1.10;;;7.80;99.90;;;;;;4860394;29;20025;-73
2024/01/23 02:55:11;;;;;;;0.47;0.47;;;7.50;99.90;;;;;;4860320;29;20037;-73
2024/01/23 02:57:38;;;;;;;0.30;0.22;;;7.20;99.90;;;;;;4860615;29;20025;-73
2024/01/23 03:00:04;;;;;;;3.65;0.55;;;7.10;99.90;;;;;;4860159;29;20121;-73
2024/01/23 03:02:30;;;;;;;0.82;0.38;;;7.00;99.90;;;;;;4860903;29;20451;-73
2024/01/23 03:04:56;;;;;;;2.17;0.52;;;6.90;99.90;;;;;;4860580;29;20133;-72
2024/01/23 03:07:23;;;;;;;3.20;0.85;;;6.80;99.90;;;;;;4860741;29;20080;-72
2024/01/23 03:09:49;;;;;;;4.07;0.80;;;6.80;99.90;;;;;;4861358;29;20033;-72
2024/01/23 03:12:21;;;;;;;1.08;0.63;;;6.70;99.90;;;;;;4859363;29;20144;-73
2024/01/23 03:14:48;;;;;;;0.85;0.40;;;6.70;99.90;;;;;;4875049;29;20483;-73
2024/01/23 03:17:16;;;;;;;0.30;0.30;;;6.70;99.90;;;;;;4874752;29;20579;-72
2024/01/23 03:19:43;;;;;;;0.40;0.20;;;6.60;99.90;;;;;;4860050;29;20026;-72
2024/01/23 03:22:12;;;;;;;0.43;0.43;;;6.40;99.90;;;;;;4858459;29;20068;-72
2024/01/23 03:24:39;;;;;;;5.32;0.73;;;6.30;99.90;;;;;;4875423;29;20077;-72
2024/01/23 03:27:06;;;;;;;0.98;0.28;;;6.20;99.90;;;;;;4860754;29;20033;-72
2024/01/23 03:29:44;;;;;;;3.90;0.45;;;6.20;99.90;;;;;;4859458;29;20460;-73
2024/01/23 03:32:11;;;;;;;8.15;1.42;;;6.30;99.90;;;;;;4858084;29;20030;-72
2024/01/23 03:34:38;;;;;;;3.80;0.70;;;6.40;99.90;;;;;;4859704;29;20122;-72
2024/01/23 03:37:05;;;;;;;7.78;0.98;;;6.40;99.90;;;;;;4859045;29;20030;-72
2024/01/23 03:39:31;;;;;;;2.08;0.70;;;6.50;99.90;;;;;;4860791;29;20025;-73
2024/01/23 03:41:57;;;;;;;2.55;0.68;;;6.60;99.90;;;;;;4874603;29;20037;-72
2024/01/23 03:44:27;;;;;;;5.18;1.55;;;6.90;99.90;;;;;;4873302;29;20131;-73
2024/01/23 03:46:54;;;;;;;2.40;1.15;;;6.90;99.90;;;;;;4858302;29;20033;-74
2024/01/23 03:49:20;;;;;;;2.15;0.88;;;7.10;99.90;;;;;;4860613;29;20069;-73
2024/01/23 03:51:46;;;;;;;4.95;1.13;;;7.00;99.90;;;;;;4855523;29;20064;-73
2024/01/23 03:54:11;;;;;;;3.88;1.05;;;6.90;99.90;;;;;;4860942;29;20050;-73
2024/01/23 03:56:37;;;;;;;9.88;1.15;;;6.90;99.90;;;;;;4860433;29;20044;-72
2024/01/23 03:59:03;;;;;;;10.30;0.93;;;7.00;99.90;;;;;;4860826;29;20041;-72
2024/01/23 04:01:29;;;;;;;2.30;0.65;;;7.00;99.90;;;;;;4861398;29;20045;-73
2024/01/23 04:03:54;;;;;;;3.30;0.95;;;6.90;99.90;;;;;;4859099;29;20026;-72
2024/01/23 04:06:20;;;;;;;14.38;3.03;;;6.90;99.90;;;;;;4860169;29;20038;-72
2024/01/23 04:08:46;;;;;;;4.88;0.60;;;7.10;99.90;;;;;;4859669;29;20033;-72
2024/01/23 04:11:12;;;;;;;9.65;0.95;;;7.00;99.90;;;;;;4860323;29;20061;-72
2024/01/23 04:13:37;;;;;;;4.18;1.48;;;7.00;99.90;;;;;;4859930;29;20109;-72
2024/01/23 04:16:08;;;;;;;9.48;1.48;;;6.90;99.90;;;;;;4860040;29;20074;-72
2024/01/23 04:18:35;;;;;;;6.23;1.47;;;6.90;99.90;;;;;;4859264;29;20033;-72
2024/01/23 04:21:01;;;;;;;4.25;1.13;;;6.90;99.90;;;;;;4858266;29;20069;-73
2024/01/23 04:23:28;;;;;;;6.05;1.35;;;7.00;99.90;;;;;;4859069;29;20040;-72
2024/01/23 04:25:54;;;;;;;5.63;1.08;;;6.90;99.90;;;;;;4859082;29;20045;-72
2024/01/23 04:28:20;;;;;;;13.73;1.02;;;6.80;99.90;;;;;;4859169;29;20037;-73
2024/01/23 04:30:46;;;;;;;5.55;1.08;;;6.70;99.90;;;;;;4858612;29;20026;-72
2024/01/23 04:33:12;;;;;;;0.47;0.40;;;6.80;99.90;;;;;;4859573;29;20089;-72
2024/01/23 04:35:38;;;;;;;4.82;0.85;;;6.80;99.90;;;;;;4859767;29;20097;-72
2024/01/23 04:38:04;;;;;;;2.92;1.13;;;6.80;99.90;;;;;;4858736;29;20076;-72
2024/01/23 04:40:30;;;;;;;18.40;1.35;;;6.70;99.90;;;;;;4857947;29;20704;-72
2024/01/23 04:42:55;;;;;;;8.07;0.95;;;6.80;99.90;;;;;;4858657;29;20093;-72
2024/01/23 04:45:21;;;;;;;5.57;0.52;;;6.80;99.90;;;;;;4858135;29;20087;-72
2024/01/23 04:47:47;;;;;;;6.55;1.17;;;6.90;99.90;;;;;;4859722;29;20364;-71
2024/01/23 04:50:12;;;;;;;6.53;1.20;;;6.80;99.90;;;;;;4859230;29;20460;-73
2024/01/23 04:52:38;;;;;;;15.07;0.70;;;6.80;99.90;;;;;;4859436;29;20032;-73
2024/01/23 04:55:05;;;;;;;1.88;0.88;;;6.80;99.90;;;;;;4859307;29;20090;-73
2024/01/23 04:57:31;;;;;;;4.95;0.50;;;6.80;99.90;;;;;;4858863;29;20060;-73
2024/01/23 04:59:58;;;;;;;10.57;1.42;;;6.90;99.90;;;;;;4858488;29;20398;-73
2024/01/23 05:02:24;;;;;;;2.50;0.68;;;6.80;99.90;;;;;;4872935;29;20125;-73
2024/01/23 05:04:50;;;;;;;7.93;1.23;;;6.80;99.90;;;;;;4873725;29;20490;-72
2024/01/23 05:07:16;;;;;;;18.40;1.35;;;6.70;99.90;;;;;;4857879;29;20049;-72
2024/01/23 05:09:42;;;;;;;7.72;0.88;;;6.80;99.90;;;;;;4858257;29;20368;-72
2024/01/23 05:12:10;;;;;;;1.63;0.60;;;6.80;99.90;;;;;;4857322;29;20025;-72
2024/01/23 05:14:36;;;;;;;3.40;0.98;;;6.70;99.90;;;;;;4857247;29;20054;-72
2024/01/23 05:17:02;;;;;;;4.22;1.17;;;6.70;99.90;;;;;;4857541;29;20026;-72
2024/01/23 05:19:29;;;;;;;10.02;1.58;;;6.90;99.90;;;;;;4857769;29;20052;-72
2024/01/23 05:21:55;;;;;;;15.70;1.10;;;6.80;99.90;;;;;;4857079;29;20085;-72
2024/01/23 05:24:21;;;;;;;5.25;0.60;;;6.70;99.90;;;;;;4858699;29;20121;-72
2024/01/23 05:26:47;;;;;;;0.63;0.32;;;6.70;99.90;;;;;;4858509;29;20120;-72
2024/01/23 05:29:13;;;;;;;6.00;1.00;;;6.70;99.90;;;;;;4857509;29;20090;-72
2024/01/23 05:31:39;;;;;;;5.18;0.82;;;6.60;99.90;;;;;;4857014;29;20036;-72
2024/01/23 05:34:04;;;;;;;6.63;1.58;;;6.60;99.90;;;;;;4858276;29;20035;-72
2024/01/23 05:36:30;;;;;;;4.32;0.73;;;6.60;99.90;;;;;;4858591;29;20036;-71
2024/01/23 05:38:56;;;;;;;7.10;1.23;;;6.60;99.90;;;;;;4856832;29;20117;-71
2024/01/23 05:41:22;;;;;;;0.47;0.45;;;6.60;99.90;;;;;;4858341;29;20667;-71
2024/01/23 05:43:50;;;;;;;21.52;1.58;;;6.60;99.90;;;;;;4857512;29;20554;-71
2024/01/23 05:46:15;;;;;;;3.60;0.70;;;6.60;99.90;;;;;;4857344;29;20486;-71
2024/01/23 05:48:41;;;;;;;4.18;1.33;;;6.70;99.90;;;;;;4858823;29;20089;-71
2024/01/23 05:51:07;;;;;;;10.68;0.95;;;6.70;99.90;;;;;;4855995;29;20069;-71
2024/01/23 05:53:34;;;;;;;6.57;1.30;;;6.80;99.90;;;;;;4858370;29;20037;-71
2024/01/23 05:55:59;;;;;;;5.07;1.00;;;6.80;99.90;;;;;;4853114;29;20530;-71
2024/01/23 05:58:25;;;;;;;19.73;2.85;;;6.90;99.90;;;;;;4858502;29;20037;-70
2024/01/23 06:00:51;;;;;;;1.58;0.70;;;7.00;99.90;;;;;;4858136;29;20663;-71
2024/01/23 06:03:17;;;;;;;3.83;1.05;;;7.00;99.90;;;;;;4857869;29;20038;-72
2024/01/23 06:05:42;;;;;;;21.63;1.67;;;6.90;99.90;;;;;;4860225;29;20034;-72
2024/01/23 06:08:08;;;;;;;3.30;1.70;;;6.90;99.90;;;;;;4858926;29;20025;-72
2024/01/23 06:10:34;;;;;;;7.57;1.42;;;6.90;99.90;;;;;;4874015;29;20041;-72
2024/01/23 06:13:00;;;;;;;6.82;0.90;;;6.90;99.90;;;;;;4857073;29;20026;-72
2024/01/23 06:15:25;;;;;;;9.50;1.05;;;6.90;99.90;;;;;;4861275;29;20514;-72
2024/01/23 06:17:51;;;;;;;2.50;0.68;;;6.90;99.90;;;;;;4855063;29;20033;-70
2024/01/23 06:20:17;;;;;;;2.13;0.77;;;6.90;99.90;;;;;;4855457;29;20037;-70
2024/01/23 06:22:43;;;;;;;13.93;1.58;;;6.90;99.90;;;;;;4857188;29;20097;-71
2024/01/23 06:25:15;;;;;;;5.32;0.88;;;6.80;99.90;;;;;;4855567;29;20036;-71
2024/01/23 06:27:44;;;;;;;10.52;1.60;;;6.90;99.90;;;;;;4857605;29;20550;-71
2024/01/23 06:30:13;;;;;;;3.40;0.73;;;6.90;99.90;;;;;;4872652;29;20093;-70
2024/01/23 06:32:39;;;;;;;7.05;1.30;;;6.80;99.90;;;;;;4857261;29;20025;-71
2024/01/23 06:35:06;;;;;;;0.85;0.70;;;6.80;99.90;;;;;;4858186;29;20073;-72
2024/01/23 06:37:32;;;;;;;2.45;0.75;;;6.70;99.90;;;;;;4857151;29;20646;-71
2024/01/23 06:39:58;;;;;;;9.43;1.05;;;6.70;99.90;;;;;;4853443;29;20033;-71
2024/01/23 06:42:24;;;;;;;11.63;1.23;;;6.70;99.90;;;;;;4856749;29;20082;-70
2024/01/23 06:44:50;;;;;;;1.75;0.68;;;6.80;99.90;;;;;;4872220;29;20048;-70
2024/01/23 06:47:17;;;;;;;3.17;0.82;;;6.70;99.90;;;;;;4857130;29;20029;-70
2024/01/23 06:49:43;;;;;;;1.02;0.57;;;6.60;99.90;;;;;;4859359;29;20116;-70
2024/01/23 06:52:09;;;;;;;2.25;0.90;;;6.60;99.90;;;;;;4860455;29;20502;-69
2024/01/23 06:54:35;;;;;;;9.15;1.60;;;6.50;99.90;;;;;;4857863;29;20037;-69
2024/01/23 06:57:00;;;;;;;8.68;1.15;;;6.40;99.90;;;;;;4860910;29;20392;-70
2024/01/23 06:59:27;;;;;;;4.60;1.45;;;6.40;99.90;;;;;;4857607;29;20166;-69
2024/01/23 07:01:53;;;;;;;4.88;1.38;;;6.60;99.90;;;;;;4860430;29;20113;-70
2024/01/23 07:04:19;;;;;;;17.42;2.17;;;6.70;99.90;;;;;;4861418;29;20108;-70
2024/01/23 07:06:47;;;;;;;2.85;1.90;;;6.60;99.90;;;;;;4860307;29;20029;-71
2024/01/23 07:09:13;;;;;;;5.38;1.80;;;6.60;99.90;;;;;;4873409;29;20029;-69
2024/01/23 07:11:42;;;;;;;4.13;2.03;;;6.60;99.90;;;;;;4860555;29;20073;-69
2024/01/23 07:14:08;;;;;;;4.88;1.38;;;6.60;99.90;;;;;;4857775;29;20032;-70
2024/01/23 07:16:40;;;;;;;1.45;0.50;;;6.70;99.90;;;;;;4860456;29;20028;-71
2024/01/23 07:19:06;;;;;;;5.03;1.33;;;6.70;99.90;;;;;;4860693;29;20113;-67
2024/01/23 07:21:32;;;;;;;2.28;0.93;;;6.70;99.90;;;;;;4861220;29;20595;-67
2024/01/23 07:23:57;;;;;;;5.65;1.27;;;6.60;99.90;;;;;;4861078;29;20033;-68
2024/01/23 07:26:28;;;;;;;6.88;2.78;;;6.60;99.90;;;;;;4858666;29;20103;-70
2024/01/23 07:28:54;;;;;;;1.42;0.30;;;6.50;99.90;;;;;;4858407;29;20030;-69
2024/01/23 07:31:20;;;;;;;3.20;0.98;;;6.40;99.90;;;;;;4859711;29;20037;-69
2024/01/23 07:33:46;;;;;;;4.18;1.02;;;6.40;99.90;;;;;;4856878;29;20018;-69
2024/01/23 07:36:11;;;;;;;2.60;0.25;;;6.30;99.90;;;;;;4860952;29;20032;-69
2024/01/23 07:38:37;;;;;;;12.25;0.70;;;6.40;99.90;;;;;;4860805;29;20050;-70
2024/01/23 07:41:04;;;;;;;3.15;0.82;;;6.40;99.90;;;;;;4861163;29;20474;-69
2024/01/23 07:43:30;;;;;;;1.10;0.60;;;6.60;99.90;;;;;;4855181;29;20415;-70
2024/01/23 07:45:56;;;;;;;15.38;1.98;;;6.60;99.90;;;;;;4875095;29;20029;-70
2024/01/23 07:48:21;;;;;;;6.57;0.95;;;6.80;99.90;;;;;;4856748;29;20066;-70
2024/01/23 07:50:47;;;;;;;8.57;0.93;;;6.80;99.90;;;;;;4875314;29;20084;-69
2024/01/23 07:53:13;;;;;;;11.63;0.98;;;6.80;99.90;;;;;;4857870;29;20519;-70
2024/01/23 07:55:41;;;;;;;11.55;1.88;;;6.80;99.90;;;;;;4861345;29;20057;-70
2024/01/23 07:58:08;;;;;;;5.65;0.93;;;6.80;99.90;;;;;;4858130;29;20045;-70
2024/01/23 08:00:34;;;;;;;8.95;1.45;;;6.90;99.90;;;;;;4873911;29;20051;-70
2024/01/23 08:03:00;;;;;;;17.52;1.85;;;6.90;99.90;;;;;;4859348;29;20037;-69
2024/01/23 08:05:25;;;;;;;14.07;1.27;;;7.00;99.90;;;;;;4860729;29;20068;-69
2024/01/23 08:07:51;;;;;;;6.35;1.48;;;7.00;99.90;;;;;;4857889;29;20040;-70
2024/01/23 08:10:20;;;;;;;10.25;1.08;;;7.00;99.90;;;;;;4858108;29;20108;-69
2024/01/23 08:12:46;;;;;;;5.93;0.95;;;7.10;99.90;;;;;;4860245;29;20383;-69
2024/01/23 08:15:12;;;;;;;7.25;0.55;;;7.00;99.90;;;;;;4860601;29;20081;-69
2024/01/23 08:17:38;;;;;;;4.53;1.35;;;7.10;99.90;;;;;;4857169;29;20042;-70
2024/01/23 08:20:08;;;;;;;3.13;0.90;;;7.10;99.90;;;;;;4858536;29;20045;-70
2024/01/23 08:22:33;;;;;;;6.38;2.08;;;7.10;99.90;;;;;;4860262;29;20522;-69
2024/01/23 08:24:59;;;;;;;2.05;0.50;;;7.10;99.90;;;;;;4860279;29;20109;-69
2024/01/23 08:27:25;;;;;;;5.22;0.85;;;7.10;99.90;;;;;;4859137;29;20041;-69
2024/01/23 08:29:50;;;;;;;4.97;0.98;;;7.20;99.90;;;;;;4860235;29;20399;-69
2024/01/23 08:32:16;;;;;;;3.28;0.82;;;7.20;99.90;;;;;;4860379;29;20033;-69
2024/01/23 08:34:43;;;;;;;1.48;0.65;;;7.30;99.90;;;;;;4857467;29;20037;-70
2024/01/23 08:37:09;;;;;;;7.28;1.10;;;7.30;99.90;;;;;;4860537;29;20086;-69
2024/01/23 08:39:34;;;;;;;1.65;0.45;;;7.40;99.90;;;;;;4859929;29;20141;-69
2024/01/23 08:42:00;;;;;;;5.68;0.68;;;7.40;99.90;;;;;;4860280;29;20483;-69
2024/01/23 08:44:26;;;;;;;3.05;1.13;;;7.40;99.90;;;;;;4859800;29;20048;-69
2024/01/23 08:46:51;;;;;;;1.30;0.40;;;7.40;99.90;;;;;;4860244;29;20026;-70
2024/01/23 08:49:17;;;;;;;3.85;0.90;;;7.40;99.90;;;;;;4873909;29;20038;-70
2024/01/23 08:51:43;;;;;;;3.65;0.60;;;7.40;99.90;;;;;;4860177;29;20044;-70
2024/01/23 08:54:09;;;;;;;12.00;0.82;;;7.50;99.90;;;;;;4859847;29;20029;-70
2024/01/23 08:56:34;;;;;;;6.75;0.98;;;7.60;99.90;;;;;;4860231;29;20104;-70
2024/01/23 08:59:00;;;;;;;4.88;0.70;;;7.60;99.90;;;;;;4859685;29;20034;-70
2024/01/23 09:01:26;;;;;;;2.03;1.75;;;7.70;99.90;;;;;;4859726;29;20109;-70
2024/01/23 09:03:52;;;;;;;6.55;0.70;;;7.80;99.90;;;;;;4859192;29;20483;-70
2024/01/23 09:06:17;;;;;;;9.05;1.20;;;7.90;99.90;;;;;;4859668;29;20057;-70
2024/01/23 09:08:43;;;;;;;4.97;1.08;;;7.90;99.90;;;;;;4856895;29;20148;-70
2024/01/23 09:11:09;;;;;;;7.97;1.48;;;8.00;99.90;;;;;;4859798;29;20037;-70
2024/01/23 09:13:35;;;;;;;14.50;1.27;;;8.00;99.90;;;;;;4858797;29;20038;-70
2024/01/23 09:16:01;;;;;;;11.63;1.67;;;8.00;99.90;;;;;;4860001;29;20029;-69
2024/01/23 09:18:28;;;;;;;9.30;1.58;;;8.10;99.90;;;;;;4857764;29;20033;-69
2024/01/23 09:20:56;;;;;;;8.40;1.00;;;8.10;99.90;;;;;;4858381;29;20411;-69
2024/01/23 09:23:24;;;;;;;11.70;1.05;;;8.10;99.90;;;;;;4854359;29;20038;-69
2024/01/23 09:25:51;;;;;;;3.30;1.17;;;8.20;99.90;;;;;;4858502;29;20068;-70
2024/01/23 09:28:17;;;;;;;9.35;0.98;;;8.20;99.90;;;;;;4854906;29;20045;-69
2024/01/23 09:30:43;;;;;;;0.57;0.28;;;8.30;99.90;;;;;;4873616;29;20061;-70
2024/01/23 09:33:15;;;;;;;5.50;0.75;;;8.40;99.90;;;;;;4857551;29;20029;-70
2024/01/23 09:35:43;;;;;;;3.35;1.70;;;8.40;99.90;;;;;;4852136;29;20029;-69
2024/01/23 09:38:09;;;;;;;4.93;1.52;;;8.50;99.90;;;;;;4839506;29;20540;-70
2024/01/23 09:40:35;;;;;;;1.25;0.52;;;8.60;99.90;;;;;;4872739;29;20033;-70
2024/01/23 09:43:02;;;;;;;13.57;1.67;;;8.70;99.90;;;;;;4857344;29;20542;-70
2024/01/23 09:45:29;;;;;;;6.25;2.17;;;8.80;99.90;;;;;;4873141;29;20116;-69
2024/01/23 09:47:55;;;;;;;2.92;0.85;;;8.80;99.90;;;;;;4859057;29;20040;-68
2024/01/23 09:50:26;;;;;;;2.65;1.38;;;8.90;99.90;;;;;;4859357;29;20045;-68
2024/01/23 09:52:52;;;;;;;4.28;0.95;;;8.90;99.90;;;;;;4858008;29;20032;-69
2024/01/23 09:55:19;;;;;;;1.95;0.73;;;8.90;99.90;;;;;;4870987;29;20037;-69
2024/01/23 09:57:48;;;;;;;10.77;2.03;;;9.00;99.90;;;;;;4857674;29;20037;-69
2024/01/23 10:00:14;;;;;;;8.30;0.82;;;9.00;99.90;;;;;;4870093;29;20038;-69
2024/01/23 10:02:41;;;;;;;13.55;1.15;;;9.10;99.90;;;;;;4858503;29;20037;-69
2024/01/23 10:05:14;;;;;;;9.98;1.92;;;9.20;99.90;;;;;;4872595;29;20036;-69
2024/01/23 10:07:40;;;;;;;7.72;1.92;;;9.40;99.90;;;;;;4857465;29;20495;-69
2024/01/23 10:10:16;;;;;;;6.18;1.08;;;9.90;99.90;;;;;;4873025;29;20038;-69
2024/01/23 10:12:47;;;;;;;7.85;1.63;;;11.10;99.90;;;;;;4864390;29;20018;-70
2024/01/23 10:15:16;;;;;;;9.73;1.75;;;12.50;99.90;;;;;;4869351;29;20108;-69
2024/01/23 10:17:47;;;;;;;10.38;1.73;;;13.50;98.80;;;;;;4857324;29;20089;-69
2024/01/23 10:20:13;;;;;;;7.97;0.75;;;12.70;99.00;;;;;;4870209;29;20037;-69
2024/01/23 10:22:39;;;;;;;5.00;2.10;;;12.70;98.90;;;;;;4858043;29;20116;-69
2024/01/23 10:25:15;;;;;;;6.68;1.40;;;12.40;99.10;;;;;;4870473;29;20048;-69
2024/01/23 10:27:41;;;;;;;10.38;1.80;;;12.70;98.40;;;;;;4861110;29;20034;-69
2024/01/23 10:30:08;;;;;;;12.20;1.85;;;12.80;98.10;;;;;;4857337;29;20037;-69
2024/01/23 10:32:37;;;;;;;6.72;1.05;;;12.20;98.80;;;;;;4861796;29;20030;-69
2024/01/23 10:35:03;;;;;;;5.65;1.50;;;11.60;99.90;;;;;;4876349;29;20037;-69
2024/01/23 10:37:29;;;;;;;5.57;1.08;;;10.90;99.90;;;;;;4860928;29;20060;-69
2024/01/23 10:39:56;;;;;;;7.10;1.27;;;10.70;99.90;;;;;;4856689;29;20025;-69
2024/01/23 10:42:22;;;;;;;20.25;1.90;;;10.50;99.90;;;;;;4860542;29;20037;-69
2024/01/23 10:44:50;;;;;;;7.60;1.52;;;10.70;99.90;;;;;;4856110;29;20093;-69
2024/01/23 10:47:19;;;;;;;13.45;2.28;;;11.90;99.90;;;;;;4876071;29;20029;-69
2024/01/23 10:49:46;;;;;;;9.73;1.50;;;12.50;98.90;;;;;;4857546;29;20055;-69
2024/01/23 10:52:31;;;;;;;10.35;1.42;;;13.00;97.00;;;;;;4860507;29;20034;-69
2024/01/23 10:54:59;;;;;;;5.35;1.45;;;12.30;98.00;;;;;;4873950;29;20081;-70
2024/01/23 10:57:27;;;;;;;11.88;1.85;;;12.30;98.70;;;;;;4860389;29;20034;-70
2024/01/23 10:59:53;;;;;;;1.55;0.88;;;12.80;97.20;;;;;;4861240;29;20037;-69
2024/01/23 11:02:37;;;;;;;8.00;1.00;;;13.70;95.30;;;;;;4861251;29;20101;-70
2024/01/23 11:05:04;;;;;;;10.35;1.50;;;13.20;94.70;;;;;;4861332;29;20037;-70
2024/01/23 11:07:56;;;;;;;16.65;2.78;;;13.40;94.60;;;;;;4861291;29;20030;-69
2024/01/23 11:10:50;;;;;;;14.35;1.65;;;12.90;95.50;;;;;;4857614;29;20044;-69
2024/01/23 11:13:38;;;;;;;7.82;1.10;;;14.20;93.70;;;;;;4860557;29;20044;-69
2024/01/23 11:16:08;;;;;;;2.72;0.98;;;14.90;88.90;;;;;;4860908;29;20030;-69
2024/01/23 11:18:34;;;;;;;6.97;1.42;;;15.30;83.70;;;;;;4874295;29;20435;-69
2024/01/23 11:21:09;;;;;;;2.90;1.35;;;14.10;90.10;;;;;;4854855;29;20117;-69
2024/01/23 11:23:40;;;;;;;2.92;0.73;;;14.70;87.00;;;;;;4859931;29;20132;-69
2024/01/23 11:26:26;;;;;;;8.73;1.23;;;12.70;91.10;;;;;;4854834;29;20041;-69
2024/01/23 11:28:54;;;;;;;3.00;1.05;;;12.80;95.10;;;;;;4860801;29;20037;-69
2024/01/23 11:31:21;;;;;;;6.63;1.48;;;15.00;89.10;;;;;;4860231;29;20398;-70
2024/01/23 11:33:49;;;;;;;6.25;1.02;;;14.60;88.60;;;;;;4875212;29;20028;-70
2024/01/23 11:36:23;;;;;;;5.57;0.82;;;14.50;91.00;;;;;;4838300;29;20034;-70
2024/01/23 11:38:56;;;;;;;12.70;1.10;;;14.00;88.60;;;;;;4859791;29;20037;-70
2024/01/23 11:41:27;;;;;;;4.13;1.05;;;13.50;92.00;;;;;;4799189;29;20049;-70
2024/01/23 11:44:15;;;;;;;8.32;1.98;;;13.60;93.00;;;;;;4859499;29;20055;-70
2024/01/23 11:46:43;;;;;;;8.43;0.82;;;12.20;96.30;;;;;;4869462;29;20029;-69
2024/01/23 11:49:10;;;;;;;5.15;1.40;;;11.20;99.50;;;;;;4859402;29;20041;-69
2024/01/23 11:51:37;;;;;;;9.00;2.08;;;10.30;99.90;;;;;;4838876;29;20029;-69
2024/01/23 11:54:10;;;;;;;1.10;0.55;;;10.00;99.90;;;;;;4840837;29;20038;-69
2024/01/23 11:56:37;;;;;;;2.38;0.38;;;9.90;99.90;;;;;;4873736;29;20484;-69
2024/01/23 11:59:03;;;;;;;15.55;1.23;;;10.00;99.90;;;;;;4859086;29;20300;-69
2024/01/23 12:01:35;;;;;;;13.82;1.23;;;10.50;99.90;;;;;;4853661;29;20462;-70
2024/01/23 12:04:01;;;;;;;2.72;0.88;;;12.40;99.90;;;;;;4859134;29;20396;-69
2024/01/23 12:06:31;;;;;;;4.90;0.93;;;11.90;99.80;;;;;;4854898;29;20041;-69
2024/01/23 12:08:57;;;;;;;5.30;0.68;;;12.50;99.30;;;;;;4859450;29;20048;-69
2024/01/23 12:11:23;;;;;;;12.60;2.38;;;12.00;99.60;;;;;;4854324;29;20041;-69
2024/01/23 12:13:50;;;;;;;4.30;0.95;;;11.70;99.90;;;;;;4845712;29;20046;-69
2024/01/23 12:16:18;;;;;;;1.17;0.63;;;11.90;99.90;;;;;;4859936;29;20029;-69
2024/01/23 12:18:53;;;;;;;5.97;2.05;;;11.80;99.90;;;;;;4859106;29;20049;-69
2024/01/23 12:21:19;;;;;;;6.28;2.05;;;12.10;99.90;;;;;;4855897;29;20046;-69
2024/01/23 12:23:45;;;;;;;6.40;1.33;;;13.50;99.40;;;;;;4859943;29;20041;-69
2024/01/23 12:26:11;;;;;;;7.63;1.13;;;12.90;99.70;;;;;;4859233;29;20029;-69
2024/01/23 12:28:37;;;;;;;2.90;0.88;;;13.30;98.30;;;;;;4874077;29;20029;-69
2024/01/23 12:31:11;;;;;;;12.30;1.30;;;12.50;99.90;;;;;;4852704;29;20030;-69
2024/01/23 12:33:38;;;;;;;6.00;1.20;;;11.60;99.90;;;;;;4857884;29;20037;-69
2024/01/23 12:36:05;;;;;;;7.63;1.70;;;11.10;99.90;;;;;;4856473;29;20033;-69
2024/01/23 12:38:31;;;;;;;5.63;1.35;;;10.80;99.90;;;;;;4859929;29;20033;-69
2024/01/23 12:41:00;;;;;;;8.57;0.85;;;10.30;99.90;;;;;;4853371;29;20040;-69
2024/01/23 12:43:26;;;;;;;3.40;1.40;;;10.20;99.90;;;;;;4857485;29;20112;-69
2024/01/23 12:45:53;;;;;;;8.27;1.08;;;10.00;99.90;;;;;;4855841;29;20125;-69
2024/01/23 12:48:21;;;;;;;3.97;1.20;;;9.80;99.90;;;;;;4870602;29;20033;-69
2024/01/23 12:50:47;;;;;;;7.55;1.30;;;9.80;99.90;;;;;;4854966;29;20540;-69
2024/01/23 12:53:13;;;;;;;17.67;1.70;;;9.80;99.90;;;;;;4870003;29;20029;-70